createdAt,value
2022-10-01T00:02:57.118Z,6.70
2022-10-01T00:07:50.323Z,7.53
2022-10-01T00:12:50.177Z,7.68
2022-10-01T00:17:44.533Z,7.15
2022-10-01T00:22:39.223Z,6.70
2022-10-01T00:27:32.731Z,7.70
2022-10-01T00:32:27.539Z,7.38
2022-10-01T00:37:21.753Z,8.02
2022-10-01T00:42:27.739Z,8.18
2022-10-01T00:47:27.531Z,8.00
2022-10-01T00:52:24.884Z,8.18
2022-10-01T00:57:20.602Z,7.53
2022-10-01T01:02:14.000Z,7.60
2022-10-01T01:07:07.957Z,7.47
2022-10-01T01:12:25.508Z,5.95
2022-10-01T01:17:30.248Z,5.68
2022-10-01T01:22:25.370Z,7.25
2022-10-01T01:27:45.405Z,8.93
2022-10-01T01:32:49.538Z,10.63
2022-10-01T01:37:49.581Z,12.45
2022-10-01T01:42:43.983Z,12.13
2022-10-01T01:47:39.253Z,13.55
2022-10-01T01:52:33.299Z,11.70
2022-10-01T01:57:27.604Z,13.13
2022-10-01T02:02:24.704Z,13.68
2022-10-01T02:07:43.705Z,14.60
2022-10-01T02:13:04.949Z,15.00
2022-10-01T02:18:09.862Z,15.20
2022-10-01T02:23:16.212Z,13.80
2022-10-01T02:28:29.658Z,12.73
2022-10-01T02:33:30.227Z,14.38
2022-10-01T02:38:25.241Z,13.10
2022-10-01T02:43:26.263Z,11.10
2022-10-01T02:48:19.848Z,10.15
2022-10-01T02:53:20.875Z,11.00
2022-10-01T02:58:14.236Z,10.88
2022-10-01T03:03:07.956Z,11.77
2022-10-01T03:08:01.424Z,11.32
2022-10-01T03:12:56.259Z,11.02
2022-10-01T03:17:53.826Z,9.77
2022-10-01T03:22:47.907Z,10.45
2022-10-01T03:27:41.942Z,10.75
2022-10-01T03:32:35.029Z,11.20
2022-10-01T03:37:28.072Z,10.10
2022-10-01T03:42:21.662Z,10.05
2022-10-01T03:47:14.902Z,10.13
2022-10-01T03:52:08.788Z,8.77
2022-10-01T03:57:02.773Z,7.38
2022-10-01T04:01:56.825Z,7.75
2022-10-01T04:06:51.353Z,7.07
2022-10-01T04:11:45.790Z,6.28
2022-10-01T04:16:39.901Z,5.97
2022-10-01T04:21:34.006Z,6.75
2022-10-01T04:26:27.575Z,6.55
2022-10-01T04:31:27.977Z,6.25
2022-10-01T04:36:21.567Z,7.18
2022-10-01T04:41:15.830Z,7.45
2022-10-01T04:46:10.103Z,8.13
2022-10-01T04:51:04.181Z,6.60
2022-10-01T04:55:57.439Z,5.63
2022-10-01T05:00:51.550Z,5.95
2022-10-01T05:05:45.754Z,5.85
2022-10-01T05:10:39.463Z,3.60
2022-10-01T05:15:33.945Z,4.47
2022-10-01T05:20:29.496Z,4.82
2022-10-01T05:25:22.806Z,3.72
2022-10-01T05:30:24.580Z,3.70
2022-10-01T05:35:19.128Z,5.75
2022-10-01T05:40:13.134Z,4.82
2022-10-01T05:45:10.677Z,4.63
2022-10-01T05:50:05.126Z,4.82
2022-10-01T05:55:00.152Z,4.88
2022-10-01T05:59:54.430Z,6.53
2022-10-01T06:04:48.227Z,5.78
2022-10-01T06:09:42.456Z,5.40
2022-10-01T06:14:36.660Z,5.53
2022-10-01T06:19:30.123Z,5.45
2022-10-01T06:24:24.128Z,5.90
2022-10-01T06:29:18.068Z,6.80
2022-10-01T06:34:11.863Z,8.10
2022-10-01T06:39:08.309Z,8.55
2022-10-01T06:44:02.997Z,7.50
2022-10-01T06:48:56.434Z,7.75
2022-10-01T06:53:50.777Z,7.57
2022-10-01T06:58:44.183Z,7.32
2022-10-01T07:03:38.491Z,8.60
2022-10-01T07:08:31.720Z,7.50
2022-10-01T07:13:25.401Z,6.90
2022-10-01T07:18:18.877Z,8.35
2022-10-01T07:23:14.141Z,7.82
2022-10-01T07:28:16.847Z,6.90
2022-10-01T07:33:10.753Z,4.38
2022-10-01T07:38:07.983Z,4.03
2022-10-01T07:43:01.689Z,3.95
2022-10-01T07:48:00.580Z,4.53
2022-10-01T07:53:14.521Z,4.72
2022-10-01T07:58:08.148Z,4.50
2022-10-01T08:03:02.539Z,4.47
2022-10-01T08:07:59.998Z,4.72
2022-10-01T08:12:59.860Z,6.45
2022-10-01T08:17:53.939Z,5.80
2022-10-01T08:22:48.310Z,6.65
2022-10-01T08:27:41.472Z,6.93
2022-10-01T08:32:34.789Z,6.38
2022-10-01T08:37:29.867Z,6.22
2022-10-01T08:42:35.226Z,6.35
2022-10-01T08:47:37.495Z,6.10
2022-10-01T08:52:34.163Z,5.90
2022-10-01T08:57:33.271Z,5.97
2022-10-01T09:02:27.927Z,4.93
2022-10-01T09:07:32.787Z,5.13
2022-10-01T09:12:32.121Z,4.55
2022-10-01T09:18:16.023Z,4.80
2022-10-01T09:23:19.768Z,3.63
2022-10-01T09:28:55.976Z,3.10
2022-10-01T09:34:14.553Z,3.22
2022-10-01T09:39:22.904Z,3.13
2022-10-01T09:44:20.791Z,2.70
2022-10-01T09:54:43.629Z,3.00
2022-10-01T09:59:57.835Z,3.23
2022-10-01T10:05:21.009Z,2.83
2022-10-01T10:10:25.975Z,4.03
2022-10-01T10:15:23.256Z,2.70
2022-10-01T10:20:30.703Z,3.20
2022-10-01T10:25:26.008Z,2.72
2022-10-01T10:30:20.661Z,2.90
2022-10-01T10:35:18.625Z,4.55
2022-10-01T10:40:23.581Z,3.20
2022-10-01T10:45:21.464Z,3.22
2022-10-01T10:50:31.480Z,1.55
2022-10-01T10:55:31.402Z,2.70
2022-10-01T11:00:27.223Z,2.25
2022-10-01T11:05:32.776Z,1.90
2022-10-01T11:10:32.950Z,1.75
2022-10-01T11:15:31.694Z,2.50
2022-10-01T11:20:51.445Z,2.17
2022-10-01T11:26:00.153Z,2.75
2022-10-01T11:31:01.120Z,2.45
2022-10-01T11:36:27.737Z,2.15
2022-10-01T11:41:26.776Z,2.20
2022-10-01T11:46:33.656Z,1.73
2022-10-01T11:51:34.983Z,2.22
2022-10-01T11:56:50.547Z,1.85
2022-10-01T12:01:52.830Z,1.73
2022-10-01T12:06:55.741Z,1.60
2022-10-01T12:12:01.791Z,2.00
2022-10-01T12:17:27.475Z,2.08
2022-10-01T12:22:49.459Z,2.20
2022-10-01T12:28:01.433Z,2.72
2022-10-01T12:33:06.483Z,2.00
2022-10-01T12:38:33.277Z,2.17
2022-10-01T12:43:45.151Z,2.55
2022-10-01T12:48:52.224Z,2.80
2022-10-01T12:53:58.365Z,2.03
2022-10-01T12:59:06.439Z,2.42
2022-10-01T13:04:21.100Z,3.67
2022-10-01T13:09:46.676Z,3.20
2022-10-01T13:19:48.818Z,3.13
2022-10-01T13:25:15.642Z,2.88
2022-10-01T13:30:39.730Z,3.00
2022-10-01T13:35:40.253Z,3.92
2022-10-01T13:40:36.029Z,4.97
2022-10-01T13:45:34.643Z,4.93
2022-10-01T13:50:28.953Z,4.75
2022-10-01T13:55:27.763Z,3.95
2022-10-01T14:00:25.099Z,4.97
2022-10-01T14:05:17.842Z,6.30
2022-10-01T14:10:14.071Z,5.20
2022-10-01T14:15:37.558Z,5.50
2022-10-01T14:20:45.303Z,5.97
2022-10-01T14:25:53.614Z,5.13
2022-10-01T14:30:54.737Z,5.15
2022-10-01T14:36:14.684Z,5.10
2022-10-01T14:41:18.723Z,4.80
2022-10-01T14:46:17.570Z,5.63
2022-10-01T14:51:28.983Z,6.75
2022-10-01T14:56:23.209Z,5.88
2022-10-01T15:01:23.323Z,6.45
2022-10-01T15:06:22.362Z,6.57
2022-10-01T15:11:19.298Z,5.22
2022-10-01T15:16:40.865Z,6.32
2022-10-01T15:21:51.009Z,5.38
2022-10-01T15:26:52.184Z,5.43
2022-10-01T15:31:47.838Z,5.47
2022-10-01T15:36:42.166Z,5.50
2022-10-01T15:41:36.026Z,5.15
2022-10-01T15:46:33.957Z,5.13
2022-10-01T15:51:29.276Z,6.75
2022-10-01T15:56:24.563Z,5.18
2022-10-01T16:01:31.581Z,4.68
2022-10-01T16:06:52.787Z,5.45
2022-10-01T16:12:04.820Z,5.35
2022-10-01T16:17:19.053Z,4.80
2022-10-01T16:22:30.039Z,5.00
2022-10-01T16:27:29.804Z,4.45
2022-10-01T16:32:23.123Z,4.80
2022-10-01T16:37:17.538Z,6.03
2022-10-01T16:42:24.142Z,6.35
2022-10-01T16:47:18.936Z,7.70
2022-10-01T16:52:16.909Z,7.55
2022-10-01T16:57:12.053Z,7.47
2022-10-01T17:02:06.001Z,8.75
2022-10-01T17:06:59.775Z,7.72
2022-10-01T17:11:54.485Z,6.93
2022-10-01T17:16:49.012Z,7.82
2022-10-01T17:21:46.679Z,7.05
2022-10-01T17:26:46.135Z,6.60
2022-10-01T17:31:41.561Z,6.90
2022-10-01T17:36:35.943Z,7.18
2022-10-01T17:41:30.120Z,6.45
2022-10-01T17:46:24.331Z,17.50
2022-10-01T17:51:18.426Z,9.25
2022-10-01T17:56:35.438Z,15.80
2022-10-01T18:01:29.575Z,5.65
2022-10-01T18:06:24.894Z,4.13
2022-10-01T18:11:19.644Z,1.90
2022-10-01T18:16:18.883Z,2.22
2022-10-01T18:21:14.838Z,1.38
2022-10-01T18:26:09.173Z,1.23
2022-10-01T18:31:14.870Z,0.70
2022-10-01T18:36:33.165Z,0.70
2022-10-01T18:41:40.954Z,0.85
2022-10-01T18:46:55.716Z,0.75
2022-10-01T18:52:01.934Z,1.02
2022-10-01T18:57:06.933Z,0.88
2022-10-01T19:02:20.980Z,0.98
2022-10-01T19:07:32.512Z,1.30
2022-10-01T19:12:37.156Z,1.38
2022-10-01T19:17:45.570Z,1.42
2022-10-01T19:22:56.666Z,1.30
2022-10-01T19:28:34.775Z,1.65
2022-10-01T19:33:31.242Z,1.05
2022-10-01T19:38:34.526Z,1.20
2022-10-01T19:43:42.970Z,1.33
2022-10-01T19:48:43.040Z,1.27
2022-10-01T19:53:38.349Z,1.23
2022-10-01T19:58:33.958Z,1.85
2022-10-01T20:03:37.717Z,1.20
2022-10-01T20:08:53.815Z,1.13
2022-10-01T20:13:57.081Z,1.10
2022-10-01T20:18:59.508Z,1.55
2022-10-01T20:24:10.115Z,2.05
2022-10-01T20:29:35.612Z,3.42
2022-10-01T20:34:42.745Z,3.22
2022-10-01T20:40:02.591Z,3.75
2022-10-01T20:44:57.237Z,3.90
2022-10-01T20:50:09.320Z,3.25
2022-10-01T20:55:09.054Z,3.55
2022-10-01T21:05:07.225Z,3.30
2022-10-01T21:10:04.115Z,2.72
2022-10-01T21:14:58.074Z,2.05
2022-10-01T21:20:15.457Z,2.50
2022-10-01T21:25:19.485Z,4.40
2022-10-01T21:30:18.332Z,1.65
2022-10-01T21:40:28.930Z,2.50
2022-10-01T21:45:34.277Z,2.45
2022-10-01T21:51:01.208Z,2.17
2022-10-01T21:55:58.559Z,2.17
2022-10-01T22:01:12.287Z,1.70
2022-10-01T22:06:29.569Z,1.30
2022-10-01T22:11:32.314Z,1.60
2022-10-01T22:16:30.904Z,2.20
2022-10-01T22:21:36.249Z,1.95
2022-10-01T22:26:31.001Z,1.95
2022-10-01T22:31:27.991Z,1.83
2022-10-01T22:36:35.260Z,2.10
2022-10-01T22:41:42.243Z,3.63
2022-10-01T22:47:13.400Z,2.10
2022-10-01T22:52:21.484Z,1.90
2022-10-01T22:57:44.440Z,1.70
2022-10-01T23:02:44.760Z,1.40
2022-10-01T23:07:56.433Z,1.98
2022-10-01T23:13:13.721Z,1.98
2022-10-01T23:18:42.261Z,2.08
2022-10-01T23:23:35.958Z,1.75
2022-10-01T23:28:35.444Z,1.75
2022-10-01T23:33:50.240Z,2.33
2022-10-01T23:38:57.048Z,2.97
2022-10-01T23:43:50.970Z,4.07
2022-10-01T23:48:52.052Z,2.40
2022-10-01T23:54:17.109Z,2.53
2022-10-01T23:59:32.896Z,4.28
